createdAt,value
2023-05-24T00:01:25.569Z,2054.60
2023-05-24T00:03:53.663Z,1712.23
2023-05-24T00:06:21.667Z,1815.60
2023-05-24T00:08:50.951Z,1615.20
2023-05-24T00:11:18.858Z,1626.40
2023-05-24T00:13:46.810Z,1776.17
2023-05-24T00:16:14.697Z,1800.10
2023-05-24T00:18:46.834Z,1856.17
2023-05-24T00:21:15.313Z,1981.33
2023-05-24T00:23:44.023Z,1977.93
2023-05-24T00:26:13.159Z,1927.63
2023-05-24T00:28:45.932Z,1946.27
2023-05-24T00:31:13.720Z,1932.03
2023-05-24T00:33:41.500Z,2005.03
2023-05-24T00:36:09.858Z,1884.13
2023-05-24T00:38:37.669Z,1932.33
2023-05-24T00:41:05.754Z,1895.80
2023-05-24T00:43:35.601Z,1919.40
2023-05-24T00:46:16.443Z,1914.30
2023-05-24T00:48:44.463Z,1987.40
2023-05-24T00:51:14.917Z,1866.87
2023-05-24T00:53:45.796Z,1912.07
2023-05-24T00:56:14.890Z,2040.20
2023-05-24T00:58:44.732Z,1930.77
2023-05-24T01:01:13.171Z,2031.20
2023-05-24T01:03:41.632Z,1996.00
2023-05-24T01:06:10.350Z,1978.20
2023-05-24T01:09:03.629Z,2000.00
2023-05-24T01:11:41.976Z,1924.07
2023-05-24T01:14:21.150Z,1924.27
2023-05-24T01:16:56.414Z,1961.37
2023-05-24T01:19:52.256Z,1872.87
2023-05-24T01:22:41.083Z,1703.00
2023-05-24T01:25:14.600Z,1727.57
2023-05-24T01:27:44.780Z,1942.60
2023-05-24T01:30:14.477Z,2030.17
2023-05-24T01:32:43.007Z,1902.83
2023-05-24T01:35:11.116Z,1876.90
2023-05-24T01:37:38.898Z,1939.77
2023-05-24T01:40:10.116Z,1847.63
2023-05-24T01:42:46.510Z,1678.50
2023-05-24T01:45:20.719Z,1781.73
2023-05-24T01:48:02.915Z,1698.60
2023-05-24T01:50:35.371Z,1694.17
2023-05-24T01:53:07.787Z,1848.13
2023-05-24T01:55:38.499Z,1927.83
2023-05-24T01:58:09.335Z,1888.80
2023-05-24T02:00:40.011Z,1828.53
2023-05-24T02:03:08.144Z,1726.13
2023-05-24T02:05:37.672Z,1642.83
2023-05-24T02:08:07.109Z,1516.67
2023-05-24T02:10:34.897Z,1640.47
2023-05-24T02:13:02.676Z,1732.90
2023-05-24T02:15:31.775Z,1822.73
2023-05-24T02:18:01.454Z,1768.57
2023-05-24T02:20:31.309Z,1739.20
2023-05-24T02:23:00.330Z,1656.17
2023-05-24T02:25:28.869Z,1625.63
2023-05-24T02:27:56.617Z,1628.60
2023-05-24T02:30:24.464Z,1418.10
2023-05-24T02:32:53.833Z,1598.83
2023-05-24T02:35:21.888Z,1605.93
2023-05-24T02:37:50.139Z,1679.30
2023-05-24T02:40:18.181Z,1575.13
2023-05-24T02:42:46.138Z,1489.90
2023-05-24T02:45:14.097Z,1514.27
2023-05-24T02:47:41.962Z,1453.90
2023-05-24T02:50:11.932Z,1523.13
2023-05-24T02:52:39.680Z,1559.67
2023-05-24T02:55:08.581Z,1546.10
2023-05-24T02:57:37.859Z,1501.80
2023-05-24T03:00:09.169Z,1541.90
2023-05-24T03:02:38.585Z,1531.13
2023-05-24T03:05:07.610Z,1661.13
2023-05-24T03:07:36.757Z,1542.37
2023-05-24T03:10:04.944Z,2046.57
2023-05-24T03:12:32.750Z,1619.10
2023-05-24T03:15:00.538Z,1353.77
2023-05-24T03:17:28.481Z,1201.87
2023-05-24T03:19:56.406Z,1238.87
2023-05-24T03:22:24.194Z,1256.97
2023-05-24T03:24:53.407Z,1313.07
2023-05-24T03:27:21.196Z,1313.37
2023-05-24T03:29:49.378Z,1254.33
2023-05-24T03:32:21.125Z,1094.13
2023-05-24T03:34:49.031Z,1346.23
2023-05-24T03:37:17.337Z,1208.27
2023-05-24T03:39:46.020Z,1221.10
2023-05-24T03:42:31.166Z,1867.30
2023-05-24T03:44:59.056Z,1859.80
2023-05-24T03:47:27.020Z,894.83
2023-05-24T03:49:54.808Z,1861.73
2023-05-24T03:52:22.680Z,733.37
2023-05-24T03:54:50.653Z,1807.80
2023-05-24T03:57:18.779Z,1882.73
2023-05-24T03:59:49.014Z,1917.80
2023-05-24T04:02:16.852Z,1920.97
2023-05-24T04:04:44.680Z,1050.37
2023-05-24T04:07:15.496Z,975.23
2023-05-24T04:09:43.702Z,1070.37
2023-05-24T04:12:12.601Z,970.77
2023-05-24T04:14:42.745Z,1960.43
2023-05-24T04:17:12.391Z,760.30
2023-05-24T04:19:40.571Z,1804.77
2023-05-24T04:22:08.372Z,1765.33
2023-05-24T04:24:38.073Z,1782.17
2023-05-24T04:27:07.992Z,1748.90
2023-05-24T04:29:35.807Z,1805.03
2023-05-24T04:32:03.703Z,1786.93
2023-05-24T04:34:33.902Z,1893.47
2023-05-24T04:37:02.119Z,798.03
2023-05-24T04:39:31.072Z,940.73
2023-05-24T04:42:00.506Z,1175.03
2023-05-24T04:44:28.342Z,1282.63
2023-05-24T04:46:56.174Z,1396.57
2023-05-24T04:49:23.944Z,1587.83
2023-05-24T04:51:55.114Z,1814.80
2023-05-24T04:54:23.177Z,1651.13
2023-05-24T04:56:51.534Z,1693.17
2023-05-24T04:59:19.559Z,1684.90
2023-05-24T05:01:48.366Z,1651.37
2023-05-24T05:04:16.258Z,1663.80
2023-05-24T05:06:44.743Z,1599.63
2023-05-24T05:09:14.785Z,1755.43
2023-05-24T05:11:43.258Z,1615.43
2023-05-24T05:14:11.649Z,1647.33
2023-05-24T05:16:41.175Z,1809.70
2023-05-24T05:19:09.028Z,1898.83
2023-05-24T05:21:39.547Z,2014.37
2023-05-24T05:24:07.377Z,1888.80
2023-05-24T05:26:36.632Z,2078.60
2023-05-24T05:29:04.869Z,2036.73
2023-05-24T05:31:32.673Z,1910.23
2023-05-24T05:34:00.416Z,1800.83
2023-05-24T05:36:28.231Z,1805.40
2023-05-24T05:38:56.010Z,1849.20
2023-05-24T05:41:23.766Z,1979.37
2023-05-24T05:43:52.856Z,2050.07
2023-05-24T05:46:22.162Z,2034.87
2023-05-24T05:48:50.086Z,1982.77
2023-05-24T05:51:17.858Z,2175.63
2023-05-24T05:53:45.659Z,2038.73
2023-05-24T05:56:13.536Z,2074.67
2023-05-24T05:58:41.337Z,1993.63
2023-05-24T06:01:10.569Z,2266.67
2023-05-24T06:03:38.472Z,2100.43
2023-05-24T06:06:06.413Z,2150.10
2023-05-24T06:08:35.321Z,2139.83
2023-05-24T06:11:03.545Z,1899.97
2023-05-24T06:13:32.924Z,2103.43
2023-05-24T06:16:01.325Z,1980.23
2023-05-24T06:18:32.504Z,2013.23
2023-05-24T06:21:00.249Z,1948.27
2023-05-24T06:23:28.106Z,1996.60
2023-05-24T06:25:56.110Z,1999.73
2023-05-24T06:28:24.181Z,2043.03
2023-05-24T06:30:52.047Z,1782.27
2023-05-24T06:33:20.094Z,1935.20
2023-05-24T06:35:49.559Z,1944.90
2023-05-24T06:38:17.720Z,2007.27
2023-05-24T06:40:45.802Z,1709.97
2023-05-24T06:43:13.651Z,1786.37
2023-05-24T06:45:41.894Z,1749.93
2023-05-24T06:48:09.788Z,1764.20
2023-05-24T06:50:39.143Z,1876.53
2023-05-24T06:53:10.369Z,1768.87
2023-05-24T06:55:38.521Z,1736.73
2023-05-24T06:58:06.939Z,1786.23
2023-05-24T07:00:34.727Z,1662.93
2023-05-24T07:03:02.540Z,1998.47
2023-05-24T07:05:30.279Z,1845.83
2023-05-24T07:07:58.012Z,1726.27
2023-05-24T07:10:27.146Z,1686.20
2023-05-24T07:12:55.459Z,1758.00
2023-05-24T07:15:23.558Z,1824.97
2023-05-24T07:17:51.738Z,1761.87
2023-05-24T07:20:19.656Z,1822.17
2023-05-24T07:22:47.423Z,1672.30
2023-05-24T07:25:15.517Z,1700.80
2023-05-24T07:27:44.596Z,1713.90
2023-05-24T07:30:23.795Z,1389.07
2023-05-24T07:32:59.370Z,1136.63
2023-05-24T07:35:28.621Z,1059.80
2023-05-24T07:37:56.518Z,1872.27
2023-05-24T07:40:24.577Z,1938.97
2023-05-24T07:42:53.707Z,764.53
2023-05-24T07:45:21.741Z,1907.00
2023-05-24T07:47:49.805Z,882.50
2023-05-24T07:50:18.423Z,1806.70
2023-05-24T07:52:46.167Z,1902.10
2023-05-24T07:55:14.511Z,1855.23
2023-05-24T07:57:42.697Z,1780.63
2023-05-24T08:00:14.625Z,1822.13
2023-05-24T08:02:44.041Z,1823.87
2023-05-24T08:05:13.483Z,1759.97
2023-05-24T08:07:42.079Z,2266.67
2023-05-24T08:10:12.633Z,1724.63
2023-05-24T08:12:40.551Z,1746.50
2023-05-24T08:15:09.137Z,1731.07
2023-05-24T08:17:38.944Z,2266.67
2023-05-24T08:20:09.710Z,2266.67
2023-05-24T08:22:38.132Z,1797.47
2023-05-24T08:25:07.147Z,1878.83
2023-05-24T08:27:34.968Z,2266.67
2023-05-24T08:30:04.294Z,619.00
2023-05-24T08:32:32.186Z,2266.67
2023-05-24T08:35:18.230Z,1761.87
2023-05-24T08:37:49.059Z,1694.53
2023-05-24T08:40:17.607Z,1803.73
2023-05-24T08:42:46.713Z,706.20
2023-05-24T08:45:16.266Z,1891.23
2023-05-24T08:47:44.463Z,1093.17
2023-05-24T08:50:13.958Z,1297.90
2023-05-24T08:52:43.487Z,1489.50
2023-05-24T08:55:12.492Z,1238.47
2023-05-24T08:57:41.587Z,1508.40
2023-05-24T09:00:12.744Z,1306.07
2023-05-24T09:02:42.223Z,1350.90
2023-05-24T09:05:12.140Z,1680.67
2023-05-24T09:07:41.853Z,1734.30
2023-05-24T09:10:10.874Z,1811.10
2023-05-24T09:12:40.650Z,1527.60
2023-05-24T09:15:09.548Z,1528.30
2023-05-24T09:17:38.605Z,1699.83
2023-05-24T09:20:09.058Z,1800.87
2023-05-24T09:22:41.140Z,1075.97
2023-05-24T09:25:13.873Z,1065.70
2023-05-24T09:27:41.950Z,1859.57
2023-05-24T09:30:12.469Z,1751.63
2023-05-24T09:32:41.493Z,1725.53
2023-05-24T09:35:10.743Z,1711.93
2023-05-24T09:37:40.392Z,2266.67
2023-05-24T09:40:20.887Z,2266.67
2023-05-24T09:42:51.550Z,2266.67
2023-05-24T09:45:19.665Z,1786.37
2023-05-24T09:47:48.234Z,1879.40
2023-05-24T09:50:17.999Z,933.20
2023-05-24T09:52:46.489Z,912.87
2023-05-24T09:55:15.289Z,965.60
2023-05-24T09:57:46.508Z,859.97
2023-05-24T10:00:15.924Z,750.27
2023-05-24T10:02:52.995Z,907.30
2023-05-24T10:05:22.520Z,924.37
2023-05-24T10:07:50.874Z,1177.50
2023-05-24T10:10:19.140Z,1068.70
2023-05-24T10:12:48.625Z,1038.37
2023-05-24T10:15:16.749Z,949.60
2023-05-24T10:17:44.569Z,1897.97
2023-05-24T10:20:13.297Z,1081.90
2023-05-24T10:22:47.361Z,1377.07
2023-05-24T10:25:18.593Z,1656.27
2023-05-24T10:27:49.353Z,1767.60
2023-05-24T10:30:27.796Z,1825.97
2023-05-24T10:32:56.945Z,1757.73
2023-05-24T10:35:27.400Z,1696.63
2023-05-24T10:37:55.790Z,2054.10
2023-05-24T10:40:26.029Z,1118.20
2023-05-24T10:42:55.333Z,1160.73
2023-05-24T10:45:35.609Z,1154.03
2023-05-24T10:48:11.277Z,1796.13
2023-05-24T10:50:39.177Z,1836.33
2023-05-24T10:53:12.929Z,1774.80
2023-05-24T10:55:53.723Z,1782.70
2023-05-24T10:58:28.033Z,1730.57
2023-05-24T11:00:56.124Z,2266.67
2023-05-24T11:03:25.399Z,1816.13
2023-05-24T11:05:55.423Z,1863.00
2023-05-24T11:08:30.992Z,1850.63
2023-05-24T11:11:23.486Z,662.10
2023-05-24T11:13:58.652Z,1801.50
2023-05-24T11:16:38.696Z,1769.73
2023-05-24T11:19:14.074Z,2266.67
2023-05-24T11:21:42.162Z,1660.83
2023-05-24T11:24:10.510Z,2266.67
2023-05-24T11:26:38.444Z,1788.70
2023-05-24T11:29:08.484Z,1765.57
2023-05-24T11:31:42.439Z,1819.63
2023-05-24T11:34:11.874Z,1780.47
2023-05-24T11:36:39.876Z,727.50
2023-05-24T11:39:09.564Z,2266.67
2023-05-24T11:41:38.915Z,1827.53
2023-05-24T11:44:09.903Z,1890.30
2023-05-24T11:46:39.476Z,1653.23
2023-05-24T11:49:07.774Z,1732.77
2023-05-24T11:51:37.438Z,2266.67
2023-05-24T11:54:05.553Z,1767.03
2023-05-24T11:56:34.112Z,2266.67
2023-05-24T11:59:18.125Z,2266.67
2023-05-24T12:01:46.035Z,2266.67
2023-05-24T12:04:13.982Z,2266.67
2023-05-24T12:06:43.409Z,2266.67
2023-05-24T12:09:14.190Z,1654.37
2023-05-24T12:11:42.897Z,2266.67
2023-05-24T12:14:14.586Z,2266.67
2023-05-24T12:16:45.532Z,2266.67
2023-05-24T12:19:32.543Z,2266.67
2023-05-24T12:22:02.448Z,2266.67
2023-05-24T12:24:32.423Z,2266.67
2023-05-24T12:27:02.679Z,2266.67
2023-05-24T12:29:34.949Z,2266.67
2023-05-24T12:32:04.938Z,2266.67
2023-05-24T12:34:33.535Z,2266.67
2023-05-24T12:37:01.775Z,2266.67
2023-05-24T12:39:31.800Z,2266.67
2023-05-24T12:42:02.072Z,2266.67
2023-05-24T12:44:32.280Z,2266.67
2023-05-24T12:47:00.602Z,2266.67
2023-05-24T12:49:29.998Z,2266.67
2023-05-24T12:51:57.878Z,2266.67
2023-05-24T12:54:26.988Z,2266.67
2023-05-24T12:56:57.228Z,2266.67
2023-05-24T12:59:25.619Z,2266.67
2023-05-24T13:01:53.982Z,2266.67
2023-05-24T13:04:23.418Z,2266.67
2023-05-24T13:06:52.724Z,2266.67
2023-05-24T13:09:21.976Z,2266.67
2023-05-24T13:11:50.509Z,2266.67
2023-05-24T13:14:19.582Z,2266.67
2023-05-24T13:16:47.539Z,2266.67
2023-05-24T13:19:16.565Z,2266.67
2023-05-24T13:21:44.461Z,2266.67
2023-05-24T13:24:17.560Z,2266.67
2023-05-24T13:26:46.100Z,2266.67
2023-05-24T13:31:45.325Z,2266.67
2023-05-24T13:34:13.840Z,2266.67
2023-05-24T13:36:42.036Z,2266.67
2023-05-24T13:41:44.045Z,2266.67
2023-05-24T13:44:12.460Z,2266.67
2023-05-24T13:46:41.030Z,2266.67
2023-05-24T13:49:10.150Z,2266.67
2023-05-24T13:51:38.983Z,2266.67
2023-05-24T13:54:08.063Z,2266.67
2023-05-24T13:56:37.122Z,2266.67
2023-05-24T13:59:07.622Z,2266.67
2023-05-24T14:01:39.283Z,2266.67
2023-05-24T14:04:07.902Z,2266.67
2023-05-24T14:06:37.794Z,2266.67
2023-05-24T14:09:07.554Z,2266.67
2023-05-24T14:11:35.841Z,2266.67
2023-05-24T14:16:36.751Z,2266.67
2023-05-24T14:19:05.426Z,2266.67
2023-05-24T14:21:36.476Z,2266.67
2023-05-24T14:24:04.676Z,2266.67
2023-05-24T14:26:32.853Z,2266.67
2023-05-24T14:29:01.582Z,2266.67
2023-05-24T14:31:29.521Z,2266.67
2023-05-24T14:33:58.795Z,2266.67
2023-05-24T14:36:26.621Z,2266.67
2023-05-24T14:38:54.509Z,2266.67
2023-05-24T14:41:22.541Z,2266.67
2023-05-24T14:43:51.113Z,2266.67
2023-05-24T14:46:18.961Z,2266.67
2023-05-24T14:48:46.901Z,2266.67
2023-05-24T14:51:16.114Z,2266.67
2023-05-24T14:53:43.953Z,2266.67
2023-05-24T14:56:13.989Z,2266.67
2023-05-24T14:58:42.140Z,2266.67
2023-05-24T15:01:10.048Z,2266.67
2023-05-24T15:03:37.993Z,2266.67
2023-05-24T15:06:06.273Z,2266.67
2023-05-24T15:08:35.969Z,2266.67
2023-05-24T15:11:05.044Z,2266.67
2023-05-24T15:13:33.080Z,2266.67
2023-05-24T15:16:01.259Z,2266.67
2023-05-24T15:18:32.090Z,2266.67
2023-05-24T15:21:00.326Z,2266.67
2023-05-24T15:23:28.406Z,2266.67
2023-05-24T15:25:57.534Z,2266.67
2023-05-24T15:28:26.614Z,2266.67
2023-05-24T15:30:54.953Z,2266.67
2023-05-24T15:33:22.917Z,2266.67
2023-05-24T15:35:50.853Z,2266.67
2023-05-24T15:38:18.717Z,2266.67
2023-05-24T15:40:46.712Z,2266.67
2023-05-24T15:43:16.413Z,2266.67
2023-05-24T15:45:44.590Z,2266.67
2023-05-24T15:48:12.769Z,2266.67
2023-05-24T15:50:59.959Z,2266.67
2023-05-24T15:53:28.592Z,2266.67
2023-05-24T15:55:57.366Z,2266.67
2023-05-24T15:58:26.576Z,2266.67
2023-05-24T16:00:54.572Z,2266.67
2023-05-24T16:03:22.499Z,2266.67
2023-05-24T16:05:50.544Z,2266.67
2023-05-24T16:08:18.709Z,2266.67
2023-05-24T16:10:46.654Z,2266.67
2023-05-24T16:13:14.633Z,2266.67
2023-05-24T16:15:47.540Z,2266.67
2023-05-24T16:18:18.064Z,2266.67
2023-05-24T16:20:46.765Z,2266.67
2023-05-24T16:23:14.746Z,2266.67
2023-05-24T16:25:42.582Z,2266.67
2023-05-24T16:28:10.373Z,2266.67
2023-05-24T16:30:38.134Z,2266.67
2023-05-24T16:33:07.359Z,2266.67
2023-05-24T16:35:35.667Z,2266.67
2023-05-24T16:38:03.442Z,2266.67
2023-05-24T16:40:31.168Z,2266.67
2023-05-24T16:42:58.954Z,2266.67
2023-05-24T16:45:26.724Z,2266.67
2023-05-24T16:47:54.612Z,2266.67
2023-05-24T16:50:23.796Z,2266.67
2023-05-24T16:52:51.668Z,2266.67
2023-05-24T16:55:19.837Z,2266.67
2023-05-24T16:57:47.747Z,2266.67
2023-05-24T17:00:16.308Z,2266.67
2023-05-24T17:02:44.152Z,2266.67
2023-05-24T17:05:12.402Z,1558.00
2023-05-24T17:07:42.691Z,1619.30
2023-05-24T17:10:10.694Z,1626.70
2023-05-24T17:12:38.497Z,2266.67
2023-05-24T17:15:07.042Z,1670.27
2023-05-24T17:17:34.958Z,1725.63
2023-05-24T17:20:02.882Z,1718.43
2023-05-24T17:22:30.805Z,1858.30
2023-05-24T17:24:59.936Z,2266.67
2023-05-24T17:27:27.765Z,2266.67
2023-05-24T17:29:55.954Z,2266.67
2023-05-24T17:32:44.046Z,2266.67
2023-05-24T17:35:32.113Z,2266.67
2023-05-24T17:38:20.175Z,2266.67
2023-05-24T17:41:10.034Z,1611.40
2023-05-24T17:43:58.184Z,2266.67
2023-05-24T17:46:46.350Z,1657.77
2023-05-24T17:49:34.434Z,1641.07
2023-05-24T17:52:22.610Z,1705.90
2023-05-24T17:55:11.422Z,1728.33
2023-05-24T17:58:01.945Z,1763.57
2023-05-24T18:00:49.999Z,1727.07
2023-05-24T18:03:39.142Z,1808.67
2023-05-24T18:06:27.331Z,1764.37
2023-05-24T18:09:16.158Z,1926.67
2023-05-24T18:12:04.542Z,1859.80
2023-05-24T18:14:53.908Z,1844.60
2023-05-24T18:17:42.003Z,1825.77
2023-05-24T18:20:30.326Z,359.30
2023-05-24T18:23:18.472Z,1860.53
2023-05-24T18:26:11.216Z,1895.43
2023-05-24T18:28:59.263Z,1831.60
2023-05-24T18:31:49.629Z,1873.70
2023-05-24T18:34:37.708Z,1782.93
2023-05-24T18:37:25.753Z,2266.67
2023-05-24T18:40:15.697Z,2266.67
2023-05-24T18:43:03.760Z,2266.67
2023-05-24T18:45:51.878Z,2266.67
2023-05-24T18:48:41.624Z,2266.67
2023-05-24T18:51:29.743Z,2266.67
2023-05-24T18:54:17.830Z,2266.67
2023-05-24T18:57:06.126Z,2266.67
2023-05-24T18:59:54.152Z,2266.67
2023-05-24T19:02:42.344Z,2266.67
2023-05-24T19:05:31.834Z,2266.67
2023-05-24T19:08:19.880Z,2266.67
2023-05-24T19:11:09.508Z,2266.67
2023-05-24T19:13:57.553Z,2266.67
2023-05-24T19:16:45.635Z,2266.67
2023-05-24T19:19:34.007Z,2266.67
2023-05-24T19:22:23.464Z,2266.67
2023-05-24T19:25:11.577Z,2266.67
2023-05-24T19:28:00.716Z,2266.67
2023-05-24T19:30:49.223Z,2266.67
2023-05-24T19:33:45.377Z,2266.67
2023-05-24T19:36:41.348Z,2266.67
2023-05-24T19:39:30.849Z,2266.67
2023-05-24T19:42:18.901Z,2266.67
2023-05-24T19:45:09.381Z,2266.67
2023-05-24T19:47:57.498Z,2266.67
2023-05-24T19:50:47.978Z,2266.67
2023-05-24T19:53:36.785Z,2266.67
2023-05-24T19:56:26.715Z,2266.67
2023-05-24T19:59:14.757Z,2266.67
2023-05-24T20:02:02.880Z,2266.67
2023-05-24T20:04:51.101Z,2266.67
2023-05-24T20:07:39.133Z,2266.67
2023-05-24T20:10:29.840Z,2266.67
2023-05-24T20:13:19.459Z,2266.67
2023-05-24T20:16:07.904Z,2266.67
2023-05-24T20:18:55.968Z,2266.67
2023-05-24T20:21:44.650Z,2266.67
2023-05-24T20:24:32.731Z,2266.67
2023-05-24T20:27:21.312Z,2266.67
2023-05-24T20:30:12.567Z,2266.67
2023-05-24T20:33:01.740Z,2266.67
2023-05-24T20:35:49.901Z,2266.67
2023-05-24T20:38:39.568Z,2266.67
2023-05-24T20:41:30.275Z,2266.67
2023-05-24T20:44:18.467Z,2266.67
2023-05-24T20:47:07.991Z,2266.67
2023-05-24T20:49:56.083Z,2266.67
2023-05-24T20:52:44.198Z,2266.67
2023-05-24T20:55:32.256Z,2266.67
2023-05-24T20:58:20.687Z,2266.67
2023-05-24T21:01:09.234Z,2266.67
2023-05-24T21:03:58.624Z,2266.67
2023-05-24T21:06:46.674Z,2266.67
2023-05-24T21:09:34.923Z,2266.67
2023-05-24T21:12:23.164Z,2266.67
2023-05-24T21:15:11.645Z,2266.67
2023-05-24T21:17:59.801Z,2266.67
2023-05-24T21:20:49.533Z,2266.67
2023-05-24T21:23:37.565Z,2266.67
2023-05-24T21:26:26.433Z,2266.67
2023-05-24T21:29:14.585Z,2266.67
2023-05-24T21:32:02.613Z,2266.67
2023-05-24T21:34:50.771Z,2266.67
2023-05-24T21:37:40.171Z,2266.67
2023-05-24T21:40:28.235Z,2266.67
2023-05-24T21:43:17.807Z,2266.67
2023-05-24T21:46:06.180Z,2266.67
2023-05-24T21:48:54.225Z,2266.67
2023-05-24T21:51:42.268Z,2266.67
2023-05-24T21:54:31.645Z,2266.67
2023-05-24T21:57:19.708Z,2266.67
2023-05-24T22:00:09.152Z,2266.67
2023-05-24T22:02:57.341Z,2266.67
2023-05-24T22:05:45.522Z,2266.67
2023-05-24T22:08:33.901Z,2266.67
2023-05-24T22:11:23.373Z,2266.67
2023-05-24T22:14:11.500Z,2266.67
2023-05-24T22:16:59.553Z,2266.67
2023-05-24T22:19:47.979Z,2266.67
2023-05-24T22:22:36.570Z,2266.67
2023-05-24T22:25:24.769Z,2266.67
2023-05-24T22:28:14.244Z,2266.67
2023-05-24T22:31:03.113Z,2266.67
2023-05-24T22:33:51.192Z,2266.67
2023-05-24T22:36:39.354Z,2266.67
2023-05-24T22:39:27.451Z,2266.67
2023-05-24T22:42:15.476Z,2266.67
2023-05-24T22:45:05.554Z,2266.67
2023-05-24T22:47:54.055Z,2266.67
2023-05-24T22:50:42.291Z,2266.67
2023-05-24T22:53:30.313Z,2266.67
2023-05-24T22:56:18.385Z,2266.67
2023-05-24T22:59:06.816Z,2266.67
2023-05-24T23:01:56.191Z,2266.67
2023-05-24T23:04:46.004Z,2266.67
2023-05-24T23:07:34.367Z,2266.67
2023-05-24T23:10:22.458Z,2266.67
2023-05-24T23:13:10.488Z,2266.67
2023-05-24T23:15:58.613Z,2266.67
2023-05-24T23:18:48.492Z,2266.67
2023-05-24T23:21:37.016Z,2266.67
2023-05-24T23:24:26.800Z,2266.67
2023-05-24T23:27:14.965Z,2266.67
2023-05-24T23:30:03.008Z,2266.67
2023-05-24T23:32:51.074Z,2266.67
2023-05-24T23:35:40.628Z,2266.67
2023-05-24T23:38:28.723Z,2266.67
2023-05-24T23:41:16.761Z,2266.67
2023-05-24T23:44:04.813Z,2266.67
2023-05-24T23:46:53.185Z,2266.67
2023-05-24T23:49:41.247Z,2266.67
2023-05-24T23:52:31.228Z,2266.67
2023-05-24T23:55:19.277Z,2266.67
2023-05-24T23:58:07.906Z,2266.67
